Terminal Aerodrome Forecast
Issued by NWS Cleveland, OH

Home | Current Version | Previous Version | Text Only | Print | Product List | Glossary Off
Versions: 1 2 3 4 5 6 7 8 9 10 11 12 13 14 15

000
FTUS41 KCLE 271532 AAA
TAFERI
TAF AMD
KERI 271532Z 2716/2812 32007KT P6SM BKN018 OVC035
      TEMPO 2716/2718 BKN025 OVC040
     FM271800 33008KT P6SM BKN035
     FM272300 29005KT P6SM SCT040
     FM280300 19003KT P6SM SKC=

USA.gov is the U.S. government's official web portal to all federal, state and local government web resources and services.